createdAt,value
2024-04-06T00:00:21.022Z,101040.38
2024-04-06T00:00:43.341Z,101042.54
2024-04-06T00:01:05.716Z,101039.84
2024-04-06T00:01:28.012Z,101043.23
2024-04-06T00:01:50.618Z,101041.61
2024-04-06T00:02:13.626Z,101042.79
2024-04-06T00:02:36.127Z,101043.06
2024-04-06T00:02:58.423Z,101041.83
2024-04-06T00:03:21.901Z,101047.56
2024-04-06T00:03:53.009Z,101043.36
2024-04-06T00:04:16.154Z,101050.15
2024-04-06T00:04:39.376Z,101046.81
2024-04-06T00:05:01.799Z,101049.23
2024-04-06T00:05:24.088Z,101051.63
2024-04-06T00:05:46.359Z,101052.32
2024-04-06T00:06:09.058Z,101051.44
2024-04-06T00:06:31.364Z,101052.96
2024-04-06T00:06:53.656Z,101054.48
2024-04-06T00:07:15.964Z,101055.66
2024-04-06T00:07:38.246Z,101057.75
2024-04-06T00:08:09.652Z,101058.79
2024-04-06T00:08:36.034Z,101055.94
2024-04-06T00:09:00.075Z,101055.05
2024-04-06T00:09:22.492Z,101055.02
2024-04-06T00:09:44.963Z,101057.06
2024-04-06T00:10:07.564Z,101056.89
2024-04-06T00:10:29.863Z,101055.63
2024-04-06T00:10:52.160Z,101057.87
2024-04-06T00:11:14.474Z,101058.20
2024-04-06T00:11:36.750Z,101059.56
2024-04-06T00:11:59.455Z,101056.39
2024-04-06T00:12:22.881Z,101054.83
2024-04-06T00:12:45.171Z,101057.55
2024-04-06T00:13:07.467Z,101055.63
2024-04-06T00:13:29.762Z,101055.60
2024-04-06T00:13:52.793Z,101054.34
2024-04-06T00:14:19.101Z,101054.49
2024-04-06T00:14:41.459Z,101051.52
2024-04-06T00:15:03.743Z,101053.23
2024-04-06T00:15:26.067Z,101052.16
2024-04-06T00:15:48.279Z,101051.62
2024-04-06T00:16:11.462Z,101050.69
2024-04-06T00:16:34.477Z,101050.34
2024-04-06T00:16:56.778Z,101051.21
2024-04-06T00:17:19.153Z,101052.40
2024-04-06T00:17:41.563Z,101047.33
2024-04-06T00:18:04.168Z,101050.11
2024-04-06T00:18:26.457Z,101050.80
2024-04-06T00:18:49.372Z,101048.49
2024-04-06T00:19:11.669Z,101052.16
2024-04-06T00:19:34.525Z,101050.21
2024-04-06T00:19:56.872Z,101048.99
2024-04-06T00:20:19.198Z,101047.39
2024-04-06T00:20:41.466Z,101047.04
2024-04-06T00:21:04.681Z,101050.00
2024-04-06T00:21:27.692Z,101049.12
2024-04-06T00:21:50.397Z,101050.86
2024-04-06T00:22:12.692Z,101052.08
2024-04-06T00:22:34.989Z,101052.27
2024-04-06T00:22:57.284Z,101051.38
2024-04-06T00:24:13.202Z,101048.65
2024-04-06T00:24:35.335Z,101052.27
2024-04-06T00:24:57.667Z,101050.52
2024-04-06T00:25:20.266Z,101048.41
2024-04-06T00:25:42.564Z,101049.44
2024-04-06T00:26:05.167Z,101049.61
2024-04-06T00:26:27.486Z,101051.66
2024-04-06T00:26:49.755Z,101051.33
2024-04-06T00:27:12.054Z,101049.70
2024-04-06T00:27:34.347Z,101049.02
2024-04-06T00:27:56.643Z,101047.45
2024-04-06T00:28:18.940Z,101049.52
2024-04-06T00:28:41.266Z,101048.80
2024-04-06T00:29:03.632Z,101046.73
2024-04-06T00:29:25.952Z,101046.34
2024-04-06T00:29:48.225Z,101047.77
2024-04-06T00:30:10.929Z,101049.27
2024-04-06T00:30:34.164Z,101048.92
2024-04-06T00:30:56.642Z,101048.39
2024-04-06T00:31:18.942Z,101048.06
2024-04-06T00:31:41.244Z,101045.39
2024-04-06T00:32:03.634Z,101049.23
2024-04-06T00:32:26.394Z,101053.41
2024-04-06T00:32:48.738Z,101048.35
2024-04-06T00:33:11.036Z,101050.46
2024-04-06T00:33:33.333Z,101051.48
2024-04-06T00:33:58.079Z,101049.91
2024-04-06T00:34:20.323Z,101048.13
2024-04-06T00:34:42.571Z,101049.58
2024-04-06T00:35:05.172Z,101047.89
2024-04-06T00:35:27.501Z,101049.19
2024-04-06T00:35:50.174Z,101048.77
2024-04-06T00:36:12.469Z,101047.40
2024-04-06T00:36:34.694Z,101048.66
2024-04-06T00:36:57.777Z,101048.05
2024-04-06T00:37:20.076Z,101049.10
2024-04-06T00:37:42.680Z,101049.15
2024-04-06T00:38:05.175Z,101048.50
2024-04-06T00:38:27.724Z,101046.98
2024-04-06T00:38:50.079Z,101046.74
2024-04-06T00:39:12.372Z,101049.05
2024-04-06T00:39:34.669Z,101048.77
2024-04-06T00:39:56.961Z,101047.66
2024-04-06T00:40:19.273Z,101048.70
2024-04-06T00:40:41.558Z,101049.02
2024-04-06T00:41:03.951Z,101047.41
2024-04-06T00:41:26.285Z,101045.83
2024-04-06T00:41:49.157Z,101047.38
2024-04-06T00:42:11.766Z,101047.20
2024-04-06T00:42:34.065Z,101050.56
2024-04-06T00:42:56.462Z,101048.87
2024-04-06T00:43:18.961Z,101047.53
2024-04-06T00:43:41.148Z,101048.09
2024-04-06T00:44:04.053Z,101050.11
2024-04-06T00:44:26.484Z,101048.59
2024-04-06T00:44:48.748Z,101046.38
2024-04-06T00:45:11.046Z,101046.48
2024-04-06T00:45:33.343Z,101045.36
2024-04-06T00:45:56.357Z,101043.38
2024-04-06T00:46:18.657Z,101045.42
2024-04-06T00:46:41.149Z,101043.73
2024-04-06T00:47:03.665Z,101044.04
2024-04-06T00:47:25.961Z,101043.96
2024-04-06T00:47:48.346Z,101043.84
2024-04-06T00:48:12.277Z,101041.31
2024-04-06T00:48:34.574Z,101041.01
2024-04-06T00:48:56.871Z,101047.39
2024-04-06T00:49:19.574Z,101043.81
2024-04-06T00:49:41.871Z,101043.02
2024-04-06T00:50:07.552Z,101045.58
2024-04-06T00:50:29.983Z,101040.61
2024-04-06T00:50:55.200Z,101038.96
2024-04-06T00:51:17.498Z,101042.56
2024-04-06T00:51:39.791Z,101042.63
2024-04-06T00:52:02.093Z,101041.35
2024-04-06T00:52:24.386Z,101039.84
2024-04-06T00:52:47.193Z,101039.76
2024-04-06T00:53:09.593Z,101042.83
2024-04-06T00:53:31.888Z,101040.99
2024-04-06T00:53:54.183Z,101040.52
2024-04-06T00:54:16.482Z,101039.60
2024-04-06T00:54:39.088Z,101039.52
2024-04-06T00:55:01.684Z,101039.27
2024-04-06T00:55:23.983Z,101035.88
2024-04-06T00:55:46.211Z,101038.56
2024-04-06T00:56:08.466Z,101040.58
2024-04-06T00:56:30.785Z,101040.33
2024-04-06T00:56:54.694Z,101040.75
2024-04-06T00:57:16.992Z,101038.05
2024-04-06T00:57:39.289Z,101040.23
2024-04-06T00:58:01.583Z,101039.48
2024-04-06T00:58:23.803Z,101039.05
2024-04-06T00:58:46.795Z,101038.90
2024-04-06T00:59:09.292Z,101039.70
2024-04-06T00:59:31.594Z,101040.48
2024-04-06T00:59:53.883Z,101037.45
2024-04-06T01:00:16.381Z,101041.52
2024-04-06T01:00:38.727Z,101040.73
2024-04-06T01:01:01.405Z,101042.36
2024-04-06T01:01:24.459Z,101046.29
2024-04-06T01:02:00.338Z,101041.12
2024-04-06T01:02:27.538Z,101046.39
2024-04-06T01:02:49.897Z,101042.92
2024-04-06T01:03:12.190Z,101046.72
2024-04-06T01:03:34.485Z,101043.55
2024-04-06T01:03:56.783Z,101043.98
2024-04-06T01:04:19.078Z,101044.79
2024-04-06T01:04:41.483Z,101043.30
2024-04-06T01:05:03.792Z,101038.70
2024-04-06T01:05:26.000Z,101040.03
2024-04-06T01:05:48.166Z,101039.80
2024-04-06T01:06:10.454Z,101042.71
2024-04-06T01:06:32.752Z,101039.81
2024-04-06T01:06:55.968Z,101037.85
2024-04-06T01:07:18.269Z,101041.31
2024-04-06T01:07:43.835Z,101039.55
2024-04-06T01:08:06.228Z,101040.96
2024-04-06T01:08:28.548Z,101042.39
2024-04-06T01:08:50.824Z,101040.83
2024-04-06T01:09:13.115Z,101040.17
2024-04-06T01:09:35.412Z,101037.07
2024-04-06T01:09:57.710Z,101037.80
2024-04-06T01:10:20.017Z,101035.39
2024-04-06T01:10:42.310Z,101038.96
2024-04-06T01:11:04.654Z,101039.69
2024-04-06T01:11:27.124Z,101037.82
2024-04-06T01:11:49.394Z,101038.73
2024-04-06T01:12:11.689Z,101038.25
2024-04-06T01:12:35.109Z,101036.73
2024-04-06T01:12:57.405Z,101036.25
2024-04-06T01:13:19.699Z,101037.69
2024-04-06T01:13:42.024Z,101036.52
2024-04-06T01:14:05.545Z,101037.25
2024-04-06T01:14:27.862Z,101033.29
2024-04-06T01:14:50.212Z,101032.09
2024-04-06T01:15:12.659Z,101034.76
2024-04-06T01:15:36.060Z,101033.02
2024-04-06T01:15:58.739Z,101027.82
2024-04-06T01:16:21.240Z,101032.92
2024-04-06T01:16:44.045Z,101031.94
2024-04-06T01:17:06.342Z,101031.43
2024-04-06T01:17:28.795Z,101033.56
2024-04-06T01:17:53.091Z,101032.91
2024-04-06T01:18:15.376Z,101035.02
2024-04-06T01:18:37.672Z,101034.66
2024-04-06T01:18:59.969Z,101035.78
2024-04-06T01:19:22.174Z,101034.91
2024-04-06T01:19:45.077Z,101034.59
2024-04-06T01:20:08.227Z,101035.70
2024-04-06T01:20:31.557Z,101035.89
2024-04-06T01:20:55.329Z,101035.04
2024-04-06T01:21:19.781Z,101035.42
2024-04-06T01:21:42.087Z,101035.61
2024-04-06T01:22:04.473Z,101035.33
2024-04-06T01:22:26.767Z,101034.30
2024-04-06T01:22:49.267Z,101036.42
2024-04-06T01:23:13.472Z,101032.78
2024-04-06T01:23:38.975Z,101035.23
2024-04-06T01:24:23.055Z,101036.38
2024-04-06T01:24:48.017Z,101035.38
2024-04-06T01:25:10.302Z,101035.02
2024-04-06T01:25:32.600Z,101035.93
2024-04-06T01:25:54.893Z,101037.54
2024-04-06T01:26:17.191Z,101032.86
2024-04-06T01:26:39.491Z,101035.83
2024-04-06T01:27:01.782Z,101037.76
2024-04-06T01:27:23.909Z,101036.21
2024-04-06T01:27:46.207Z,101037.14
2024-04-06T01:28:08.464Z,101036.97
2024-04-06T01:28:30.766Z,101038.55
2024-04-06T01:28:53.056Z,101039.27
2024-04-06T01:29:15.660Z,101039.47
2024-04-06T01:29:37.955Z,101039.30
2024-04-06T01:30:00.255Z,101042.48
2024-04-06T01:30:22.441Z,101038.30
2024-04-06T01:30:44.744Z,101039.20
2024-04-06T01:31:07.251Z,101036.77
2024-04-06T01:31:29.466Z,101041.50
2024-04-06T01:31:51.627Z,101042.20
2024-04-06T01:32:14.027Z,101041.52
2024-04-06T01:32:36.331Z,101041.00
2024-04-06T01:32:58.725Z,101040.83
2024-04-06T01:33:21.122Z,101038.53
2024-04-06T01:33:43.423Z,101039.88
2024-04-06T01:34:09.392Z,101040.81
2024-04-06T01:34:32.029Z,101039.02
2024-04-06T01:34:55.009Z,101040.50
2024-04-06T01:35:17.321Z,101035.33
2024-04-06T01:35:39.598Z,101040.69
2024-04-06T01:36:01.897Z,101038.50
2024-04-06T01:36:24.194Z,101039.42
2024-04-06T01:36:46.894Z,101040.41
2024-04-06T01:37:09.292Z,101038.05
2024-04-06T01:37:31.589Z,101036.08
2024-04-06T01:37:53.783Z,101040.91
2024-04-06T01:38:16.079Z,101039.34
2024-04-06T01:38:38.684Z,101036.70
2024-04-06T01:39:00.876Z,101039.48
2024-04-06T01:39:23.169Z,101040.36
2024-04-06T01:39:45.469Z,101040.55
2024-04-06T01:40:08.610Z,101039.58
2024-04-06T01:40:31.090Z,101044.54
2024-04-06T01:40:53.480Z,101042.67
2024-04-06T01:41:15.672Z,101043.62
2024-04-06T01:41:38.174Z,101043.88
2024-04-06T01:42:00.476Z,101044.27
2024-04-06T01:42:22.772Z,101046.95
2024-04-06T01:42:45.058Z,101044.56
2024-04-06T01:43:07.356Z,101043.97
2024-04-06T01:43:29.655Z,101045.23
2024-04-06T01:43:51.957Z,101042.52
2024-04-06T01:44:14.449Z,101044.63
2024-04-06T01:44:36.750Z,101041.55
2024-04-06T01:44:58.948Z,101042.61
2024-04-06T01:45:21.134Z,101041.99
2024-04-06T01:45:43.475Z,101042.39
2024-04-06T01:46:05.839Z,101041.88
2024-04-06T01:46:28.131Z,101040.73
2024-04-06T01:46:50.416Z,101043.92
2024-04-06T01:47:12.714Z,101042.25
2024-04-06T01:47:35.132Z,101041.05
2024-04-06T01:47:57.627Z,101043.58
2024-04-06T01:48:19.908Z,101041.52
2024-04-06T01:48:42.202Z,101043.13
2024-04-06T01:49:04.498Z,101040.06
2024-04-06T01:49:26.999Z,101042.38
2024-04-06T01:49:49.514Z,101041.72
2024-04-06T01:50:11.801Z,101042.00
2024-04-06T01:50:34.098Z,101040.31
2024-04-06T01:50:56.399Z,101040.05
2024-04-06T01:51:19.197Z,101040.64
2024-04-06T01:51:41.697Z,101044.02
2024-04-06T01:52:04.300Z,101041.98
2024-04-06T01:52:26.538Z,101040.85
2024-04-06T01:52:48.995Z,101041.45
2024-04-06T01:53:11.186Z,101043.77
2024-04-06T01:53:33.790Z,101042.98
2024-04-06T01:53:56.086Z,101046.71
2024-04-06T01:54:18.381Z,101043.63
2024-04-06T01:54:41.194Z,101044.73
2024-04-06T01:55:03.790Z,101042.00
2024-04-06T01:55:26.093Z,101041.73
2024-04-06T01:55:51.049Z,101042.48
2024-04-06T01:56:13.641Z,101040.11
2024-04-06T01:56:35.804Z,101041.73
2024-04-06T01:56:59.463Z,101044.02
2024-04-06T01:57:21.860Z,101043.95
2024-04-06T01:57:44.161Z,101038.21
2024-04-06T01:58:06.865Z,101041.59
2024-04-06T01:58:29.161Z,101040.23
2024-04-06T01:58:51.453Z,101041.56
2024-04-06T01:59:13.748Z,101040.36
2024-04-06T01:59:36.668Z,101040.24
2024-04-06T01:59:59.164Z,101040.95
2024-04-06T02:00:21.463Z,101041.29
2024-04-06T02:00:43.774Z,101042.33
2024-04-06T02:01:06.046Z,101040.88
2024-04-06T02:01:28.271Z,101040.80
2024-04-06T02:01:50.537Z,101040.56
2024-04-06T02:02:13.243Z,101043.45
2024-04-06T02:02:35.861Z,101040.57
2024-04-06T02:02:58.140Z,101041.58
2024-04-06T02:03:20.844Z,101040.06
2024-04-06T02:03:43.143Z,101041.40
2024-04-06T02:04:05.436Z,101037.48
2024-04-06T02:04:27.732Z,101041.08
2024-04-06T02:04:51.051Z,101039.32
2024-04-06T02:05:13.400Z,101039.11
2024-04-06T02:05:35.865Z,101039.24
2024-04-06T02:05:58.176Z,101039.44
2024-04-06T02:06:20.556Z,101040.52
2024-04-06T02:06:42.863Z,101042.29
2024-04-06T02:07:05.981Z,101042.33
2024-04-06T02:07:28.564Z,101041.19
2024-04-06T02:07:50.952Z,101042.46
2024-04-06T02:08:13.247Z,101044.77
2024-04-06T02:08:36.062Z,101045.35
2024-04-06T02:08:58.352Z,101044.69
2024-04-06T02:09:20.646Z,101042.64
2024-04-06T02:09:42.942Z,101046.19
2024-04-06T02:10:05.339Z,101047.84
2024-04-06T02:10:27.638Z,101047.19
2024-04-06T02:10:49.934Z,101049.34
2024-04-06T02:11:12.231Z,101046.78
2024-04-06T02:11:34.523Z,101048.39
2024-04-06T02:11:56.824Z,101046.66
2024-04-06T02:12:19.322Z,101044.98
2024-04-06T02:12:41.618Z,101045.89
2024-04-06T02:13:04.118Z,101046.28
2024-04-06T02:13:26.420Z,101047.36
2024-04-06T02:13:48.737Z,101043.58
2024-04-06T02:14:11.106Z,101043.09
2024-04-06T02:14:33.400Z,101042.41
2024-04-06T02:14:55.704Z,101042.56
2024-04-06T02:15:17.832Z,101041.40
2024-04-06T02:15:40.800Z,101044.90
2024-04-06T02:16:03.099Z,101042.49
2024-04-06T02:16:25.393Z,101043.71
2024-04-06T02:16:47.690Z,101045.52
2024-04-06T02:17:09.980Z,101046.08
2024-04-06T02:17:32.227Z,101039.96
2024-04-06T02:17:54.897Z,101043.51
2024-04-06T02:18:17.183Z,101044.95
2024-04-06T02:18:39.680Z,101040.95
2024-04-06T02:19:01.974Z,101041.85
2024-04-06T02:19:24.290Z,101043.30
2024-04-06T02:19:46.567Z,101042.14
2024-04-06T02:20:10.497Z,101037.98
2024-04-06T02:20:32.703Z,101040.80
2024-04-06T02:20:56.319Z,101041.34
2024-04-06T02:21:18.612Z,101037.54
2024-04-06T02:21:40.907Z,101040.88
2024-04-06T02:22:03.212Z,101042.48
2024-04-06T02:22:25.501Z,101044.95
2024-04-06T02:22:47.903Z,101041.12
2024-04-06T02:23:10.202Z,101044.98
2024-04-06T02:23:32.523Z,101040.98
2024-04-06T02:23:54.712Z,101043.98
2024-04-06T02:24:18.538Z,101043.30
2024-04-06T02:24:40.913Z,101044.73
2024-04-06T02:25:04.651Z,101041.06
2024-04-06T02:25:27.149Z,101039.68
2024-04-06T02:25:49.436Z,101039.84
2024-04-06T02:26:12.448Z,101038.23
2024-04-06T02:26:34.749Z,101041.70
2024-04-06T02:26:56.891Z,101037.41
2024-04-06T02:27:19.140Z,101036.12
2024-04-06T02:27:41.427Z,101036.73
2024-04-06T02:28:04.435Z,101036.29
2024-04-06T02:28:26.735Z,101037.38
2024-04-06T02:28:49.237Z,101034.88
2024-04-06T02:29:11.530Z,101035.50
2024-04-06T02:29:33.838Z,101033.82
2024-04-06T02:29:56.122Z,101032.57
2024-04-06T02:30:19.140Z,101033.35
2024-04-06T02:30:41.737Z,101033.45
2024-04-06T02:31:04.956Z,101032.41
2024-04-06T02:31:28.582Z,101032.87
2024-04-06T02:31:50.875Z,101035.27
2024-04-06T02:32:13.783Z,101033.95
2024-04-06T02:32:36.143Z,101036.40
2024-04-06T02:32:59.091Z,101035.23
2024-04-06T02:33:21.389Z,101034.96
2024-04-06T02:33:43.682Z,101033.91
2024-04-06T02:34:05.980Z,101035.55
2024-04-06T02:34:28.276Z,101033.67
2024-04-06T02:34:50.571Z,101034.42
2024-04-06T02:35:12.998Z,101032.72
2024-04-06T02:35:35.391Z,101031.38
2024-04-06T02:35:57.664Z,101029.66
2024-04-06T02:36:19.962Z,101028.45
2024-04-06T02:36:42.460Z,101029.70
2024-04-06T02:37:04.770Z,101030.41
2024-04-06T02:37:26.949Z,101029.40
2024-04-06T02:37:49.552Z,101033.44
2024-04-06T02:38:11.847Z,101032.09
2024-04-06T02:38:34.547Z,101033.13
2024-04-06T02:38:57.054Z,101030.39
2024-04-06T02:39:19.681Z,101032.34
2024-04-06T02:39:41.908Z,101033.06
2024-04-06T02:40:07.211Z,101029.92
2024-04-06T02:40:29.365Z,101029.29
2024-04-06T02:40:51.706Z,101029.64
2024-04-06T02:41:14.001Z,101031.24
2024-04-06T02:41:36.291Z,101030.42
2024-04-06T02:41:59.211Z,101029.74
2024-04-06T02:42:21.498Z,101029.71
2024-04-06T02:42:43.802Z,101029.42
2024-04-06T02:43:06.091Z,101031.36
2024-04-06T02:43:28.392Z,101029.67
2024-04-06T02:43:51.225Z,101031.77
2024-04-06T02:44:13.591Z,101030.41
2024-04-06T02:44:35.892Z,101027.85
2024-04-06T02:44:58.187Z,101028.38
2024-04-06T02:45:20.483Z,101032.77
2024-04-06T02:45:42.878Z,101034.55
2024-04-06T02:46:05.175Z,101032.14
2024-04-06T02:46:27.398Z,101035.63
2024-04-06T02:46:49.662Z,101034.63
2024-04-06T02:47:11.968Z,101033.22
2024-04-06T02:47:34.668Z,101031.67
2024-04-06T02:47:56.926Z,101033.48
2024-04-06T02:48:19.160Z,101035.59
2024-04-06T02:48:41.449Z,101035.83
2024-04-06T02:49:03.749Z,101037.25
2024-04-06T02:49:26.037Z,101034.30
2024-04-06T02:49:48.336Z,101035.02
2024-04-06T02:50:11.763Z,101032.08
2024-04-06T02:50:34.497Z,101033.67
2024-04-06T02:50:57.066Z,101033.36
2024-04-06T02:51:19.359Z,101031.31
2024-04-06T02:51:41.960Z,101033.25
2024-04-06T02:52:04.566Z,101031.37
2024-04-06T02:52:26.887Z,101027.55
2024-04-06T02:52:49.158Z,101032.21
2024-04-06T02:53:11.453Z,101032.02
2024-04-06T02:53:33.689Z,101030.79
2024-04-06T02:53:56.044Z,101032.97
2024-04-06T02:54:18.270Z,101024.15
2024-04-06T02:54:41.356Z,101028.09
2024-04-06T02:55:05.981Z,101029.38
2024-04-06T02:55:28.307Z,101029.98
2024-04-06T02:55:51.516Z,101029.00
2024-04-06T02:56:13.808Z,101029.45
2024-04-06T02:56:36.104Z,101026.77
2024-04-06T02:56:58.301Z,101029.79
2024-04-06T02:57:20.600Z,101030.95
2024-04-06T02:57:44.360Z,101029.32
2024-04-06T02:58:06.616Z,101029.06
2024-04-06T02:58:28.913Z,101027.85
2024-04-06T02:58:51.721Z,101026.07
2024-04-06T02:59:14.021Z,101027.29
2024-04-06T02:59:36.425Z,101027.29
2024-04-06T02:59:58.709Z,101026.61
2024-04-06T03:00:21.009Z,101028.23
2024-04-06T03:00:43.707Z,101028.05
2024-04-06T03:01:06.003Z,101027.27
2024-04-06T03:01:28.415Z,101029.70
2024-04-06T03:01:50.630Z,101026.98
2024-04-06T03:02:12.894Z,101029.09
2024-04-06T03:02:35.189Z,101029.32
2024-04-06T03:02:57.412Z,101029.54
2024-04-06T03:03:19.792Z,101026.79
2024-04-06T03:03:42.006Z,101028.56
2024-04-06T03:04:04.382Z,101028.73
2024-04-06T03:04:26.671Z,101027.23
2024-04-06T03:04:48.984Z,101027.07
2024-04-06T03:05:11.364Z,101026.41
2024-04-06T03:05:33.697Z,101025.73
2024-04-06T03:05:56.055Z,101026.12
2024-04-06T03:06:18.360Z,101026.88
2024-04-06T03:06:40.957Z,101027.58
2024-04-06T03:07:03.387Z,101026.95
2024-04-06T03:07:25.650Z,101028.16
2024-04-06T03:07:48.458Z,101026.44
2024-04-06T03:08:10.683Z,101026.30
2024-04-06T03:08:33.087Z,101028.45
2024-04-06T03:08:55.343Z,101031.96
2024-04-06T03:09:17.642Z,101027.95
2024-04-06T03:09:39.938Z,101030.98
2024-04-06T03:10:02.232Z,101030.64
2024-04-06T03:10:24.529Z,101029.77
2024-04-06T03:10:46.847Z,101029.29
2024-04-06T03:11:09.229Z,101028.95
2024-04-06T03:11:31.589Z,101029.65
2024-04-06T03:11:54.533Z,101031.10
2024-04-06T03:12:17.744Z,101031.46
2024-04-06T03:12:39.970Z,101030.77
2024-04-06T03:13:02.249Z,101029.55
2024-04-06T03:13:24.849Z,101027.45
2024-04-06T03:13:47.128Z,101029.05
2024-04-06T03:14:09.742Z,101027.15
2024-04-06T03:14:33.218Z,101026.09
2024-04-06T03:14:55.659Z,101030.48
2024-04-06T03:15:18.158Z,101031.71
2024-04-06T03:15:40.458Z,101031.38
2024-04-06T03:16:02.752Z,101030.34
2024-04-06T03:16:25.050Z,101030.55
2024-04-06T03:16:47.445Z,101030.89
2024-04-06T03:17:09.739Z,101027.91
2024-04-06T03:17:33.010Z,101026.89
2024-04-06T03:17:55.160Z,101028.46
2024-04-06T03:18:17.752Z,101026.18
2024-04-06T03:18:40.354Z,101028.09
2024-04-06T03:19:02.655Z,101028.63
2024-04-06T03:19:25.969Z,101026.05
2024-04-06T03:19:48.159Z,101028.82
2024-04-06T03:20:11.482Z,101027.77
2024-04-06T03:20:33.819Z,101026.92
2024-04-06T03:20:56.176Z,101027.59
2024-04-06T03:21:18.474Z,101027.05
2024-04-06T03:21:40.692Z,101027.20
2024-04-06T03:22:02.860Z,101028.16
2024-04-06T03:22:25.158Z,101024.90
2024-04-06T03:22:59.007Z,101024.94
2024-04-06T03:23:21.312Z,101026.37
2024-04-06T03:23:43.601Z,101024.83
2024-04-06T03:24:06.303Z,101021.89
2024-04-06T03:24:28.599Z,101023.85
2024-04-06T03:24:51.515Z,101020.75
2024-04-06T03:25:13.908Z,101023.96
2024-04-06T03:25:36.208Z,101021.20
2024-04-06T03:25:58.498Z,101020.73
2024-04-06T03:26:20.795Z,101023.04
2024-04-06T03:26:43.755Z,101024.19
2024-04-06T03:27:06.111Z,101024.14
2024-04-06T03:27:28.326Z,101023.36
2024-04-06T03:27:50.596Z,101020.71
2024-04-06T03:28:13.804Z,101020.85
2024-04-06T03:28:36.647Z,101019.61
2024-04-06T03:28:58.910Z,101018.76
2024-04-06T03:29:21.207Z,101019.10
2024-04-06T03:29:43.603Z,101023.11
2024-04-06T03:30:06.415Z,101022.04
2024-04-06T03:30:28.704Z,101021.70
2024-04-06T03:30:51.107Z,101022.39
2024-04-06T03:31:13.399Z,101022.17
2024-04-06T03:31:35.563Z,101022.54
2024-04-06T03:31:57.901Z,101021.98
2024-04-06T03:32:20.133Z,101020.77
2024-04-06T03:32:42.378Z,101020.25
2024-04-06T03:33:05.196Z,101023.70
2024-04-06T03:33:27.387Z,101021.41
2024-04-06T03:33:49.674Z,101019.70
2024-04-06T03:34:11.870Z,101024.04
2024-04-06T03:34:34.174Z,101021.58
2024-04-06T03:34:56.462Z,101021.90
2024-04-06T03:35:19.478Z,101021.19
2024-04-06T03:35:41.611Z,101019.06
2024-04-06T03:36:04.609Z,101019.19
2024-04-06T03:36:28.064Z,101021.80
2024-04-06T03:36:50.397Z,101018.48
2024-04-06T03:37:12.708Z,101020.56
2024-04-06T03:37:34.990Z,101019.82
2024-04-06T03:37:57.899Z,101017.88
2024-04-06T03:38:20.513Z,101021.02
2024-04-06T03:38:42.819Z,101019.92
2024-04-06T03:39:05.294Z,101018.52
2024-04-06T03:39:27.594Z,101019.69
2024-04-06T03:39:49.887Z,101020.02
2024-04-06T03:40:12.804Z,101021.05
2024-04-06T03:40:35.094Z,101019.49
2024-04-06T03:40:57.388Z,101021.91
2024-04-06T03:41:19.684Z,101021.17
2024-04-06T03:41:42.218Z,101019.57
2024-04-06T03:42:04.789Z,101024.58
2024-04-06T03:42:27.082Z,101017.80
2024-04-06T03:42:58.995Z,101026.10
2024-04-06T03:43:21.288Z,101026.59
2024-04-06T03:43:43.660Z,101026.55
2024-04-06T03:44:06.291Z,101027.37
2024-04-06T03:44:28.914Z,101025.95
2024-04-06T03:44:51.189Z,101029.45
2024-04-06T03:45:13.483Z,101025.58
2024-04-06T03:45:37.332Z,101026.38
2024-04-06T03:45:59.846Z,101028.82
2024-04-06T03:46:22.722Z,101029.83
2024-04-06T03:46:45.024Z,101034.83
2024-04-06T03:47:07.928Z,101029.76
2024-04-06T03:47:30.459Z,101030.23
2024-04-06T03:47:52.725Z,101031.10
2024-04-06T03:48:15.027Z,101030.02
2024-04-06T03:48:37.328Z,101030.14
2024-04-06T03:48:59.612Z,101028.71
2024-04-06T03:49:21.906Z,101028.33
2024-04-06T03:49:44.403Z,101036.16
2024-04-06T03:50:07.115Z,101029.70
2024-04-06T03:50:29.338Z,101029.11
2024-04-06T03:50:51.607Z,101032.02
2024-04-06T03:51:13.898Z,101028.88
2024-04-06T03:51:36.196Z,101026.77
2024-04-06T03:51:58.420Z,101028.98
2024-04-06T03:52:20.695Z,101026.86
2024-04-06T03:52:42.982Z,101028.05
2024-04-06T03:53:05.599Z,101026.28
2024-04-06T03:53:32.525Z,101027.99
2024-04-06T03:53:55.624Z,101024.45
2024-04-06T03:54:17.890Z,101022.86
2024-04-06T03:54:40.194Z,101023.70
2024-04-06T03:55:02.481Z,101025.92
2024-04-06T03:55:24.871Z,101025.73
2024-04-06T03:55:47.177Z,101026.18
2024-04-06T03:56:09.484Z,101026.84
2024-04-06T03:56:31.787Z,101026.09
2024-04-06T03:56:54.271Z,101024.85
2024-04-06T03:57:16.877Z,101024.84
2024-04-06T03:57:39.269Z,101023.56
2024-04-06T03:58:01.573Z,101023.88
2024-04-06T03:58:23.865Z,101023.65
2024-04-06T03:58:46.158Z,101023.96
2024-04-06T03:59:08.454Z,101024.81
2024-04-06T03:59:31.926Z,101023.16
2024-04-06T03:59:54.267Z,101023.14
2024-04-06T04:00:17.078Z,101024.98
2024-04-06T04:00:39.385Z,101024.45
2024-04-06T04:01:01.675Z,101025.98
2024-04-06T04:01:23.966Z,101022.63
2024-04-06T04:01:46.261Z,101022.55
2024-04-06T04:02:08.570Z,101021.61
2024-04-06T04:02:30.881Z,101023.13
2024-04-06T04:02:53.253Z,101021.87
2024-04-06T04:03:15.655Z,101022.52
2024-04-06T04:03:39.380Z,101021.57
2024-04-06T04:04:01.680Z,101023.28
2024-04-06T04:04:23.971Z,101026.91
2024-04-06T04:04:46.369Z,101024.56
2024-04-06T04:05:10.106Z,101025.55
2024-04-06T04:05:32.417Z,101024.29
2024-04-06T04:05:54.683Z,101024.76
2024-04-06T04:06:16.983Z,101026.98
2024-04-06T04:06:39.307Z,101029.71
2024-04-06T04:07:01.476Z,101029.34
2024-04-06T04:07:23.792Z,101030.11
2024-04-06T04:07:45.963Z,101030.59
2024-04-06T04:08:09.178Z,101030.00
2024-04-06T04:08:31.930Z,101030.83
2024-04-06T04:08:54.183Z,101028.15
2024-04-06T04:09:17.808Z,101026.18
2024-04-06T04:09:40.204Z,101028.73
2024-04-06T04:10:03.625Z,101026.05
2024-04-06T04:10:25.932Z,101029.16
2024-04-06T04:10:48.333Z,101026.65
2024-04-06T04:11:11.124Z,101025.88
2024-04-06T04:11:33.403Z,101025.14
2024-04-06T04:11:55.717Z,101026.83
2024-04-06T04:12:18.327Z,101028.33
2024-04-06T04:12:40.924Z,101029.83
2024-04-06T04:13:04.036Z,101027.11
2024-04-06T04:13:26.536Z,101026.53
2024-04-06T04:13:48.936Z,101030.67
2024-04-06T04:14:11.235Z,101027.14
2024-04-06T04:14:33.557Z,101028.11
2024-04-06T04:14:55.933Z,101029.42
2024-04-06T04:15:18.625Z,101029.66
2024-04-06T04:15:41.765Z,101030.56
2024-04-06T04:16:05.060Z,101030.29
2024-04-06T04:16:27.358Z,101028.33
2024-04-06T04:16:49.861Z,101029.91
2024-04-06T04:17:12.154Z,101025.72
2024-04-06T04:17:35.236Z,101027.44
2024-04-06T04:17:57.562Z,101025.69
2024-04-06T04:18:19.855Z,101025.96
2024-04-06T04:18:42.162Z,101026.61
2024-04-06T04:19:04.356Z,101028.02
2024-04-06T04:19:26.647Z,101027.10